Time;durP1;ratioP1;P1;durP2;ratioP2;P2;SDS_P1;SDS_P2;PMS_P1;PMS_P2;Temp;Humidity;BMP_temperature;BMP_pressure;BME280_temperature;BME280_humidity;BME280_pressure;Samples;Min_cycle;Max_cycle;Signal;HPM_P1;HPM_P2
2024/01/08 00:00:26;;;;;;;7.23;4.73;;;;;;;-2.66;100.00;102102.28;4968187;28;20796;-80
2024/01/08 00:02:54;;;;;;;8.00;4.67;;;;;;;-2.67;100.00;102092.72;4965145;28;20645;-80
2024/01/08 00:05:20;;;;;;;7.57;4.87;;;;;;;-2.67;100.00;102092.72;4967451;28;20236;-81
2024/01/08 00:07:47;;;;;;;7.73;4.60;;;;;;;-2.69;100.00;102091.84;4972955;28;20234;-82
2024/01/08 00:10:15;;;;;;;6.47;4.33;;;;;;;-2.67;100.00;102092.72;4973500;28;20209;-80
2024/01/08 00:12:41;;;;;;;6.60;4.07;;;;;;;-2.66;100.00;102094.47;4974447;28;20204;-80
2024/01/08 00:15:08;;;;;;;6.40;4.10;;;;;;;-2.67;100.00;102092.72;4968784;28;20646;-80
2024/01/08 00:17:35;;;;;;;6.57;4.53;;;;;;;-2.68;100.00;102093.56;4976413;28;20236;-80
2024/01/08 00:20:03;;;;;;;5.50;3.93;;;;;;;-2.68;100.00;102096.19;4970945;28;20205;-80
2024/01/08 00:22:30;;;;;;;7.40;4.83;;;;;;;-2.69;100.00;102094.47;4969884;28;20219;-80
2024/01/08 00:24:56;;;;;;;6.83;4.50;;;;;;;-2.67;100.00;102096.19;4972342;28;20205;-80
2024/01/08 00:27:23;;;;;;;7.37;4.43;;;;;;;-2.66;100.00;102097.97;4972808;28;20792;-80
2024/01/08 00:29:51;;;;;;;5.87;4.20;;;;;;;-2.65;100.00;102106.66;4973831;28;20212;-80
2024/01/08 00:32:17;;;;;;;7.67;4.40;;;;;;;-2.64;100.00;102098.84;4976698;28;20295;-80
2024/01/08 00:34:44;;;;;;;6.23;4.30;;;;;;;-2.62;100.00;102109.31;4976549;28;20208;-80
2024/01/08 00:37:12;;;;;;;5.80;3.50;;;;;;;-2.60;100.00;102105.00;4971127;28;20220;-80
2024/01/08 00:39:39;;;;;;;6.10;4.10;;;;;;;-2.60;100.00;102099.78;4973781;28;20219;-80
2024/01/08 00:42:06;;;;;;;5.50;4.40;;;;;;;-2.57;100.00;102099.81;4973379;28;20208;-80
2024/01/08 00:44:32;;;;;;;9.33;4.30;;;;;;;-2.56;100.00;102106.81;4975026;28;20208;-80
2024/01/08 00:46:59;;;;;;;9.37;3.70;;;;;;;-2.59;100.00;102101.53;4975388;28;20303;-80
2024/01/08 00:49:25;;;;;;;7.43;4.50;;;;;;;-2.57;100.00;102102.44;4976190;28;20280;-80
2024/01/08 00:51:52;;;;;;;7.47;5.00;;;;;;;-2.59;100.00;102106.75;4978496;28;20224;-80
2024/01/08 00:54:19;;;;;;;8.73;4.83;;;;;;;-2.60;100.00;102105.88;4972308;28;20212;-82
2024/01/08 00:56:46;;;;;;;7.30;4.87;;;;;;;-2.60;100.00;102099.78;4969177;28;20735;-80
2024/01/08 00:59:12;;;;;;;7.50;4.87;;;;;;;-2.60;100.00;102107.59;4975653;28;20237;-79
2024/01/08 01:01:41;;;;;;;9.03;4.33;;;;;;;-2.59;100.00;102104.16;4975829;28;20680;-81
2024/01/08 01:04:07;;;;;;;6.80;4.83;;;;;;;-2.58;100.00;102112.00;4970112;28;20212;-79
2024/01/08 01:06:44;;;;;;;8.37;4.27;;;;;;;-2.58;100.00;102108.50;4971443;28;20219;-78
2024/01/08 01:09:10;;;;;;;6.97;4.10;;;;;;;-2.58;100.00;102118.94;4974628;28;20726;-79
2024/01/08 01:11:38;;;;;;;5.87;4.40;;;;;;;-2.57;100.00;102118.09;4972353;28;21380;-80
2024/01/08 01:14:05;;;;;;;8.57;4.70;;;;;;;-2.56;100.00;102115.50;4969742;28;20572;-80
2024/01/08 01:16:32;;;;;;;4.77;3.50;;;;;;;-2.56;100.00;102122.44;4972567;28;20212;-80
2024/01/08 01:18:59;;;;;;;8.70;4.63;;;;;;;-2.54;100.00;102121.63;4971284;28;20246;-79
2024/01/08 01:21:27;;;;;;;5.30;3.63;;;;;;;-2.54;100.00;102119.00;4977301;28;20208;-80
2024/01/08 01:23:54;;;;;;;5.93;4.20;;;;;;;-2.52;100.00;102132.06;4970690;28;20251;-80
2024/01/08 01:26:21;;;;;;;6.23;3.60;;;;;;;-2.52;100.00;102119.91;4973812;28;20208;-80
2024/01/08 01:28:49;;;;;;;6.10;4.57;;;;;;;-2.49;100.00;102129.47;4970131;28;20231;-79
2024/01/08 01:31:15;;;;;;;6.80;4.30;;;;;;;-2.52;100.00;102130.34;4976128;28;20204;-80
2024/01/08 01:33:42;;;;;;;7.67;5.10;;;;;;;-2.51;100.00;102137.28;4969210;28;20681;-80
2024/01/08 01:36:08;;;;;;;5.47;3.13;;;;;;;-2.54;100.00;102139.00;4972671;28;20219;-80
2024/01/08 01:38:35;;;;;;;6.47;4.43;;;;;;;-2.53;100.00;102135.53;4972635;28;20224;-80
2024/01/08 01:41:01;;;;;;;5.13;4.37;;;;;;;-2.52;100.00;102132.97;4969118;28;20213;-80
2024/01/08 01:43:29;;;;;;;6.23;3.57;;;;;;;-2.49;100.00;102132.09;4974796;28;20212;-81
2024/01/08 01:46:01;;;;;;;8.20;5.30;;;;;;;-2.53;100.00;102132.94;4972211;28;20263;-81
2024/01/08 01:48:29;;;;;;;7.40;4.00;;;;;;;-2.51;100.00;102141.66;4974638;28;20232;-80
2024/01/08 01:50:56;;;;;;;4.67;2.60;;;;;;;-2.51;100.00;102134.69;4965729;28;20665;-80
2024/01/08 01:53:23;;;;;;;9.93;4.63;;;;;;;-2.52;100.00;102130.34;4970534;28;20212;-80
2024/01/08 01:55:49;;;;;;;7.70;4.97;;;;;;;-2.54;100.00;102134.66;4974324;28;20211;-80
2024/01/08 01:58:17;;;;;;;7.70;3.57;;;;;;;-2.54;100.00;102144.22;4974050;28;20236;-80
2024/01/08 02:00:44;;;;;;;7.73;4.67;;;;;;;-2.56;100.00;102138.97;4967957;28;20212;-80
2024/01/08 02:03:12;;;;;;;4.03;2.67;;;;;;;-2.56;100.00;102131.16;4978279;28;20212;-80
2024/01/08 02:05:39;;;;;;;7.07;4.43;;;;;;;-2.56;100.00;102135.50;4966877;28;20204;-80
2024/01/08 02:08:07;;;;;;;6.67;4.60;;;;;;;-2.56;100.00;102133.75;4970366;28;20394;-80
2024/01/08 02:10:33;;;;;;;5.10;3.07;;;;;;;-2.54;100.00;102139.00;4973963;28;20292;-80
2024/01/08 02:13:01;;;;;;;7.57;4.20;;;;;;;-2.57;100.00;102134.63;4970625;28;20669;-80
2024/01/08 02:15:27;;;;;;;4.33;2.87;;;;;;;-2.60;100.00;102128.47;4972694;28;20587;-80
2024/01/08 02:17:55;;;;;;;5.60;3.33;;;;;;;-2.61;100.00;102130.19;4972948;28;20243;-80
2024/01/08 02:20:23;;;;;;;6.80;3.60;;;;;;;-2.60;100.00;102136.28;4976104;28;20656;-80
2024/01/08 02:22:51;;;;;;;5.20;2.13;;;;;;;-2.64;100.00;102124.94;4977933;28;20211;-79
2024/01/08 02:25:17;;;;;;;5.60;3.23;;;;;;;-2.63;100.00;102123.22;4974702;28;20211;-80
2024/01/08 02:27:44;;;;;;;15.67;3.63;;;;;;;-2.64;100.00;102135.38;4966979;28;20220;-80
2024/01/08 02:30:11;;;;;;;5.13;3.27;;;;;;;-2.63;100.00;102131.91;4971804;28;20208;-79
2024/01/08 02:32:37;;;;;;;6.63;4.30;;;;;;;-2.63;100.00;102129.28;4967699;28;20557;-80
2024/01/08 02:35:04;;;;;;;5.73;3.63;;;;;;;-2.63;100.00;102131.03;4972676;28;20211;-80
2024/01/08 02:37:31;;;;;;;4.47;3.40;;;;;;;-2.63;100.00;102131.91;4966965;28;20231;-80
2024/01/08 02:39:59;;;;;;;5.70;3.33;;;;;;;-2.62;100.00;102138.88;4975695;28;20211;-80
2024/01/08 02:42:25;;;;;;;3.47;2.40;;;;;;;-2.62;98.60;102149.31;4972446;28;20208;-79
2024/01/08 02:44:52;;;;;;;4.63;2.87;;;;;;;-2.63;97.65;102139.72;4967997;28;20212;-80
2024/01/08 02:47:18;;;;;;;4.23;3.00;;;;;;;-2.62;97.04;102154.53;4973183;28;20219;-80
2024/01/08 02:49:44;;;;;;;6.97;3.17;;;;;;;-2.61;95.50;102158.00;4973263;28;20242;-80
2024/01/08 02:52:11;;;;;;;5.77;4.07;;;;;;;-2.62;95.78;102154.53;4974017;28;20204;-79
2024/01/08 02:54:37;;;;;;;5.77;3.47;;;;;;;-2.60;95.73;102159.78;4972000;28;20227;-79
2024/01/08 02:57:05;;;;;;;6.70;4.20;;;;;;;-2.56;96.08;102145.94;4969237;28;20669;-79
2024/01/08 02:59:32;;;;;;;5.17;3.50;;;;;;;-2.58;96.10;102138.06;4972978;28;20243;-80
2024/01/08 03:01:59;;;;;;;5.03;3.37;;;;;;;-2.56;96.31;102136.38;4964065;28;20208;-79
2024/01/08 03:04:26;;;;;;;5.13;3.80;;;;;;;-2.53;97.16;102140.75;4965164;28;20640;-79
2024/01/08 03:06:55;;;;;;;5.63;3.77;;;;;;;-2.50;97.32;102146.00;4978335;28;20674;-79
2024/01/08 03:09:21;;;;;;;3.83;2.67;;;;;;;-2.50;97.65;102140.78;4970681;28;20243;-79
2024/01/08 03:11:48;;;;;;;6.10;4.03;;;;;;;-2.47;97.25;102152.13;4972009;28;20205;-80
2024/01/08 03:14:16;;;;;;;7.03;4.50;;;;;;;-2.47;97.57;102157.34;4968752;28;20219;-79
2024/01/08 03:16:42;;;;;;;5.97;3.83;;;;;;;-2.46;97.91;102153.00;4973694;28;20209;-79
2024/01/08 03:19:08;;;;;;;6.83;5.20;;;;;;;-2.45;98.11;102154.75;4972568;28;20228;-79
2024/01/08 03:21:35;;;;;;;6.63;4.47;;;;;;;-2.47;97.68;102153.88;4970943;28;20211;-81
2024/01/08 03:24:01;;;;;;;6.57;4.13;;;;;;;-2.44;97.76;102153.91;4972723;28;20212;-81
2024/01/08 03:26:28;;;;;;;8.57;4.13;;;;;;;-2.43;97.38;102158.28;4973321;28;20212;-79
2024/01/08 03:28:54;;;;;;;6.20;3.87;;;;;;;-2.44;97.15;102159.13;4970941;28;20315;-78
2024/01/08 03:31:22;;;;;;;8.20;3.97;;;;;;;-2.46;96.89;102163.44;4965260;28;20223;-78
2024/01/08 03:33:49;;;;;;;6.30;4.27;;;;;;;-2.44;97.15;102153.91;4973318;28;20208;-78
2024/01/08 03:36:15;;;;;;;6.00;3.77;;;;;;;-2.44;96.96;102159.13;4972266;28;20219;-77
2024/01/08 03:38:42;;;;;;;7.80;4.30;;;;;;;-2.42;97.27;102166.97;4967086;28;20239;-78
2024/01/08 03:41:08;;;;;;;5.67;3.80;;;;;;;-2.41;97.13;102164.41;4966879;28;20323;-78
2024/01/08 03:43:35;;;;;;;7.33;3.63;;;;;;;-2.42;96.75;102162.63;4970787;28;20213;-79
2024/01/08 03:46:01;;;;;;;5.57;3.60;;;;;;;-2.41;96.21;102167.00;4966448;28;20760;-78
2024/01/08 03:48:29;;;;;;;5.17;3.80;;;;;;;-2.38;96.14;102166.16;4974153;28;20239;-78
2024/01/08 03:50:56;;;;;;;6.10;3.17;;;;;;;-2.40;94.56;102163.53;4970697;28;20205;-77
2024/01/08 03:53:22;;;;;;;6.20;3.83;;;;;;;-2.41;95.04;102167.00;4970105;28;20831;-78
2024/01/08 03:55:49;;;;;;;5.57;3.73;;;;;;;-2.40;94.37;102162.66;4972823;28;20215;-79
2024/01/08 03:58:15;;;;;;;3.13;2.80;;;;;;;-2.39;94.27;102167.91;4966932;28;20228;-78
2024/01/08 04:00:42;;;;;;;5.43;2.57;;;;;;;-2.39;93.75;102164.41;4975281;28;20216;-77
2024/01/08 04:03:08;;;;;;;4.93;3.43;;;;;;;-2.39;93.15;102167.91;4974547;28;20209;-78
2024/01/08 04:05:36;;;;;;;5.07;3.07;;;;;;;-2.41;93.12;102177.44;4969259;28;20625;-79
2024/01/08 04:08:02;;;;;;;4.03;2.87;;;;;;;-2.41;92.08;102169.59;4970433;28;20620;-79
2024/01/08 04:10:29;;;;;;;4.50;2.73;;;;;;;-2.43;92.31;102184.34;4972481;28;20212;-79
2024/01/08 04:12:55;;;;;;;4.93;2.70;;;;;;;-2.45;92.28;102186.06;4971010;28;20208;-78
2024/01/08 04:15:22;;;;;;;3.60;2.70;;;;;;;-2.43;92.52;102184.34;4971186;28;20212;-78
2024/01/08 04:17:49;;;;;;;6.23;2.70;;;;;;;-2.43;91.88;102196.53;4970107;28;20243;-78
2024/01/08 04:20:15;;;;;;;2.27;1.77;;;;;;;-2.48;89.96;102192.13;4973855;28;20203;-78
2024/01/08 04:22:46;;;;;;;4.70;2.50;;;;;;;-2.51;88.55;102201.66;4970057;28;20216;-77
2024/01/08 04:25:12;;;;;;;3.23;2.03;;;;;;;-2.56;84.34;102190.25;4971519;28;20200;-79
2024/01/08 04:27:38;;;;;;;4.33;2.03;;;;;;;-2.58;84.15;102194.56;4971388;28;20296;-78
2024/01/08 04:30:08;;;;;;;4.60;2.67;;;;;;;-2.58;84.02;102197.19;4969215;28;20208;-77
2024/01/08 04:32:35;;;;;;;4.33;2.90;;;;;;;-2.60;83.43;102191.94;4972059;28;20549;-79
2024/01/08 04:35:00;;;;;;;4.27;2.47;;;;;;;-2.60;78.97;102191.94;4968970;28;20395;-77
2024/01/08 04:37:27;;;;;;;2.57;1.80;;;;;;;-2.61;76.84;102200.63;4966800;28;20208;-79
2024/01/08 04:39:55;;;;;;;6.47;2.60;;;;;;;-2.65;76.09;102208.38;4975065;28;20263;-78
2024/01/08 04:42:22;;;;;;;4.20;2.50;;;;;;;-2.70;76.15;102205.72;4967388;28;20220;-78
2024/01/08 04:44:48;;;;;;;3.47;2.30;;;;;;;-2.74;76.77;102196.06;4969131;28;20204;-78
2024/01/08 04:47:15;;;;;;;3.60;2.23;;;;;;;-2.76;76.38;102205.59;4966187;28;20209;-78
2024/01/08 04:49:41;;;;;;;4.40;2.33;;;;;;;-2.78;75.50;102217.72;4962657;28;20231;-78
2024/01/08 04:52:08;;;;;;;3.23;2.40;;;;;;;-2.79;76.25;102213.38;4967643;28;20207;-78
2024/01/08 04:54:34;;;;;;;2.77;2.30;;;;;;;-2.76;75.62;102207.34;4966472;28;20681;-80
2024/01/08 04:57:02;;;;;;;3.57;2.33;;;;;;;-2.81;75.55;102226.38;4970904;28;20204;-78
2024/01/08 04:59:29;;;;;;;4.20;2.43;;;;;;;-2.86;74.82;102222.81;4969215;28;20712;-77
2024/01/08 05:01:55;;;;;;;3.73;2.07;;;;;;;-2.91;75.12;102224.47;4969855;28;20208;-78
2024/01/08 05:04:22;;;;;;;4.80;2.73;;;;;;;-2.96;75.39;102227.84;4974120;28;20207;-78
2024/01/08 05:06:48;;;;;;;4.43;2.60;;;;;;;-2.98;75.06;102227.81;4969371;28;20208;-78
2024/01/08 05:09:14;;;;;;;4.43;2.47;;;;;;;-3.05;73.80;102225.09;4975471;28;20235;-79
2024/01/08 05:11:41;;;;;;;4.53;2.23;;;;;;;-3.11;72.79;102225.88;4969510;28;20219;-78
2024/01/08 05:14:09;;;;;;;4.80;2.93;;;;;;;-3.11;73.71;102225.00;4969473;28;20212;-78
2024/01/08 05:16:36;;;;;;;4.93;2.93;;;;;;;-3.19;72.82;102228.31;4967713;28;20235;-78
2024/01/08 05:19:02;;;;;;;7.03;3.10;;;;;;;-3.19;73.39;102235.25;4976309;28;20243;-78
2024/01/08 05:21:29;;;;;;;5.53;3.07;;;;;;;-3.20;73.96;102225.69;4974692;28;20208;-77
2024/01/08 05:23:55;;;;;;;4.73;3.23;;;;;;;-3.22;74.98;102232.59;4972226;28;20207;-79
2024/01/08 05:26:22;;;;;;;6.97;3.00;;;;;;;-3.20;75.55;102241.31;4966506;28;20311;-79
2024/01/08 05:28:48;;;;;;;4.73;3.17;;;;;;;-3.21;76.02;102244.78;4974010;28;20235;-78
2024/01/08 05:31:16;;;;;;;7.53;3.83;;;;;;;-3.24;76.35;102247.34;4972624;28;20208;-78
2024/01/08 05:33:43;;;;;;;5.43;2.90;;;;;;;-3.26;76.34;102252.53;4969064;28;20245;-78
2024/01/08 05:36:10;;;;;;;6.40;3.33;;;;;;;-3.25;73.46;102250.81;4968271;28;20200;-79
2024/01/08 05:38:36;;;;;;;4.47;2.50;;;;;;;-3.31;69.93;102251.56;4971402;28;20230;-79
2024/01/08 05:41:03;;;;;;;4.23;2.50;;;;;;;-3.40;68.60;102253.97;4970317;28;20208;-78
2024/01/08 05:43:29;;;;;;;3.83;2.77;;;;;;;-3.44;67.67;102262.59;4970415;28;20231;-78
2024/01/08 05:45:56;;;;;;;4.00;2.30;;;;;;;-3.49;67.47;102261.63;4970375;28;20204;-79
2024/01/08 05:48:23;;;;;;;4.30;2.73;;;;;;;-3.57;66.69;102261.44;4971912;28;20244;-79
2024/01/08 05:50:50;;;;;;;4.07;2.70;;;;;;;-3.58;65.65;102270.13;4971680;28;20213;-79
2024/01/08 05:53:16;;;;;;;4.13;2.40;;;;;;;-3.60;64.83;102270.97;4972814;28;20247;-79
2024/01/08 05:55:43;;;;;;;4.37;2.33;;;;;;;-3.65;64.95;102283.00;4968188;28;20223;-78
2024/01/08 05:58:09;;;;;;;3.90;2.60;;;;;;;-3.70;65.69;102288.09;4972501;28;20284;-79
2024/01/08 06:00:36;;;;;;;4.30;2.30;;;;;;;-3.74;64.82;102282.78;4970163;28;20231;-78
2024/01/08 06:03:02;;;;;;;7.57;2.87;;;;;;;-3.78;64.34;102287.06;4973505;28;20653;-77
2024/01/08 06:05:30;;;;;;;4.40;2.20;;;;;;;-3.83;62.21;102280.88;4973124;28;20208;-78
2024/01/08 06:07:57;;;;;;;4.43;2.33;;;;;;;-3.86;60.94;102291.22;4972533;28;20224;-78
2024/01/08 06:10:23;;;;;;;2.50;1.90;;;;;;;-3.92;59.94;102291.09;4973774;28;20211;-78
2024/01/08 06:12:49;;;;;;;3.37;2.00;;;;;;;-3.94;60.19;102292.81;4971230;28;20212;-79
2024/01/08 06:15:16;;;;;;;2.97;2.17;;;;;;;-4.03;60.43;102298.66;4970906;28;20215;-78
2024/01/08 06:17:44;;;;;;;3.23;1.60;;;;;;;-4.05;59.91;102313.34;4964200;28;20209;-78
2024/01/08 06:20:11;;;;;;;3.13;1.90;;;;;;;-4.06;58.56;102311.59;4974649;28;20263;-78
2024/01/08 06:22:39;;;;;;;5.63;2.60;;;;;;;-4.08;59.82;102305.47;4970991;28;20215;-78
2024/01/08 06:25:06;;;;;;;5.43;2.40;;;;;;;-4.13;59.46;102312.31;4968611;28;20204;-79
2024/01/08 06:27:33;;;;;;;5.07;2.20;;;;;;;-4.19;60.07;102306.97;4971986;28;20216;-79
2024/01/08 06:29:59;;;;;;;3.33;2.30;;;;;;;-4.21;59.96;102316.44;4973910;28;20200;-79
2024/01/08 06:32:26;;;;;;;2.50;1.90;;;;;;;-4.26;59.18;102313.72;4970294;28;20227;-79
2024/01/08 06:34:52;;;;;;;3.57;2.17;;;;;;;-4.26;58.41;102318.94;4968193;28;20250;-78
2024/01/08 06:37:19;;;;;;;2.90;1.87;;;;;;;-4.28;57.63;102323.22;4969646;28;20696;-79
2024/01/08 06:39:47;;;;;;;4.47;2.27;;;;;;;-4.33;57.73;102324.84;4968288;28;20603;-78
2024/01/08 06:42:13;;;;;;;2.90;2.00;;;;;;;-4.35;56.76;102339.53;4970411;28;20631;-78
2024/01/08 06:44:40;;;;;;;4.37;3.07;;;;;;;-4.38;57.55;102336.84;4970930;28;20219;-79
2024/01/08 06:47:06;;;;;;;4.53;2.33;;;;;;;-4.41;56.93;102339.38;4966765;28;20212;-77
2024/01/08 06:49:34;;;;;;;3.03;2.03;;;;;;;-4.43;57.33;102334.97;4970682;28;20347;-78
2024/01/08 06:52:01;;;;;;;4.93;1.93;;;;;;;-4.50;58.41;102330.50;4970797;28;20250;-78
2024/01/08 06:54:27;;;;;;;4.23;2.13;;;;;;;-4.48;58.17;102334.00;4968892;28;20216;-79
2024/01/08 06:56:55;;;;;;;1.53;1.33;;;;;;;-4.53;57.71;102333.00;4968671;28;20212;-79
2024/01/08 06:59:22;;;;;;;3.23;2.23;;;;;;;-4.57;57.96;102339.84;4969600;28;20259;-79
2024/01/08 07:01:51;;;;;;;2.83;2.13;;;;;;;-4.60;58.23;102347.56;4967550;28;20207;-78
2024/01/08 07:04:18;;;;;;;4.60;2.00;;;;;;;-4.61;57.72;102351.88;4970361;28;20212;-77
2024/01/08 07:06:44;;;;;;;4.67;2.50;;;;;;;-4.65;58.50;102359.53;4968072;28;20207;-78
2024/01/08 07:09:11;;;;;;;3.13;2.20;;;;;;;-4.67;59.51;102363.84;4966782;28;20224;-79
2024/01/08 07:11:37;;;;;;;3.30;2.20;;;;;;;-4.70;59.62;102361.16;4968337;28;20231;-78
2024/01/08 07:14:05;;;;;;;4.43;2.00;;;;;;;-4.67;59.95;102372.53;4960822;28;20204;-78
2024/01/08 07:16:32;;;;;;;8.93;2.60;;;;;;;-4.66;60.21;102363.03;4957008;28;20590;-79
2024/01/08 07:18:58;;;;;;;4.27;1.90;;;;;;;-4.66;60.31;102370.81;4966025;28;20760;-78
2024/01/08 07:21:25;;;;;;;3.53;2.30;;;;;;;-4.66;60.30;102368.22;4966693;28;20577;-79
2024/01/08 07:23:52;;;;;;;5.27;2.50;;;;;;;-4.65;61.56;102369.94;4968438;28;20220;-78
2024/01/08 07:26:18;;;;;;;4.10;2.03;;;;;;;-4.69;61.99;102368.13;4966461;28;20205;-78
2024/01/08 07:28:45;;;;;;;4.43;2.60;;;;;;;-4.73;62.35;102361.09;4966178;28;20219;-78
2024/01/08 07:31:15;;;;;;;5.10;2.83;;;;;;;-4.76;63.36;102376.59;4964838;28;20200;-78
2024/01/08 07:33:42;;;;;;;4.93;3.10;;;;;;;-4.72;64.71;102376.72;4965799;28;20207;-77
2024/01/08 07:36:09;;;;;;;4.23;2.70;;;;;;;-4.73;65.70;102384.47;4968983;28;20204;-77
2024/01/08 07:38:36;;;;;;;5.70;3.33;;;;;;;-4.74;66.90;102381.00;4966954;28;20232;-78
2024/01/08 07:41:03;;;;;;;5.53;3.10;;;;;;;-4.74;68.23;102380.13;4970143;28;20768;-78
2024/01/08 07:43:29;;;;;;;4.60;2.90;;;;;;;-4.75;67.45;102389.63;4962196;28;20205;-78
2024/01/08 07:45:56;;;;;;;4.50;3.10;;;;;;;-4.78;66.36;102392.16;4967878;28;20212;-78
2024/01/08 07:48:23;;;;;;;4.67;2.70;;;;;;;-4.80;64.11;102401.63;4968893;28;20224;-78
2024/01/08 07:50:50;;;;;;;3.30;2.50;;;;;;;-4.86;63.27;102404.06;4964664;28;20691;-78
2024/01/08 07:53:17;;;;;;;5.50;1.73;;;;;;;-4.88;62.46;102394.47;4963977;28;20204;-78
2024/01/08 07:55:43;;;;;;;5.60;2.80;;;;;;;-4.91;62.85;102403.06;4965076;28;20216;-80
2024/01/08 07:58:13;;;;;;;4.90;2.77;;;;;;;-4.96;64.03;102402.91;4964355;28;20231;-78
2024/01/08 08:00:40;;;;;;;4.37;2.60;;;;;;;-4.97;65.14;102416.75;4966703;28;20224;-78
2024/01/08 08:03:06;;;;;;;5.90;3.00;;;;;;;-4.97;66.06;102416.75;4961426;28;20972;-80
2024/01/08 08:05:34;;;;;;;4.17;2.77;;;;;;;-4.93;66.51;102418.59;4963099;28;20264;-78
2024/01/08 08:08:01;;;;;;;5.47;3.00;;;;;;;-4.93;67.00;102423.78;4968833;28;20228;-77
2024/01/08 08:10:27;;;;;;;4.20;2.97;;;;;;;-4.91;66.81;102424.72;4970172;28;20251;-80
2024/01/08 08:12:54;;;;;;;4.87;2.83;;;;;;;-4.92;66.70;102419.47;4972591;28;20205;-77
2024/01/08 08:15:20;;;;;;;8.93;3.20;;;;;;;-4.95;65.97;102420.28;5012332;22;20247;-69
2024/01/08 08:17:47;;;;;;;5.20;2.60;;;;;;;-4.97;64.67;102427.13;5007759;28;20198;-71
2024/01/08 08:20:13;;;;;;;4.10;2.63;;;;;;;-4.99;63.45;102433.13;5004157;28;20269;-72
2024/01/08 08:22:41;;;;;;;4.67;2.87;;;;;;;-5.03;63.96;102434.78;5007395;28;20222;-71
2024/01/08 08:25:10;;;;;;;4.73;2.97;;;;;;;-5.06;64.03;102437.28;5001700;28;20321;-69
2024/01/08 08:27:37;;;;;;;5.43;2.83;;;;;;;-5.09;63.07;102441.50;5001839;28;20253;-71
2024/01/08 08:30:04;;;;;;;4.33;2.70;;;;;;;-5.09;62.37;102450.19;5007815;28;20206;-71
2024/01/08 08:32:30;;;;;;;5.70;3.13;;;;;;;-5.11;62.71;102445.78;5002150;28;20233;-70
2024/01/08 08:34:57;;;;;;;5.10;2.63;;;;;;;-5.15;62.55;102454.31;5002104;28;20233;-70
2024/01/08 08:37:24;;;;;;;4.17;2.03;;;;;;;-5.15;61.55;102456.91;5003065;28;20294;-69
2024/01/08 08:39:51;;;;;;;5.40;2.50;;;;;;;-5.17;61.96;102467.25;5007077;28;20222;-70
2024/01/08 08:42:18;;;;;;;6.57;1.80;;;;;;;-5.17;61.82;102461.16;5013849;28;20230;-70
2024/01/08 08:44:44;;;;;;;4.80;2.37;;;;;;;-5.21;62.89;102456.75;5009907;28;20209;-71
2024/01/08 08:47:11;;;;;;;4.97;2.50;;;;;;;-5.17;61.71;102466.38;5010080;28;20217;-70
2024/01/08 08:49:39;;;;;;;4.87;2.93;;;;;;;-5.21;61.22;102474.91;5007659;28;20207;-70
2024/01/08 08:52:05;;;;;;;3.53;2.47;;;;;;;-5.22;61.29;102480.94;5010765;28;20568;-70
2024/01/08 08:54:32;;;;;;;4.53;2.70;;;;;;;-5.22;61.12;102481.84;5010049;28;20242;-70
2024/01/08 08:57:00;;;;;;;5.47;2.00;;;;;;;-5.22;61.34;102484.44;5009722;28;20227;-70
2024/01/08 08:59:26;;;;;;;3.80;2.03;;;;;;;-5.22;61.05;102487.03;5011417;28;20237;-71
2024/01/08 09:01:53;;;;;;;4.83;2.50;;;;;;;-5.25;61.56;102484.34;5013168;28;20227;-70
2024/01/08 09:04:19;;;;;;;5.23;2.53;;;;;;;-5.22;61.95;102484.44;5012039;28;20530;-70
2024/01/08 09:06:46;;;;;;;6.13;2.73;;;;;;;-5.20;61.35;102492.28;5005884;28;20238;-70
2024/01/08 09:09:12;;;;;;;3.67;1.60;;;;;;;-5.18;61.40;102494.06;5006960;28;20207;-70
2024/01/08 09:11:39;;;;;;;5.80;3.00;;;;;;;-5.15;61.48;102504.53;5011347;28;20248;-70
2024/01/08 09:14:08;;;;;;;5.87;2.80;;;;;;;-5.15;62.27;102507.13;5004473;28;20519;-70
2024/01/08 09:16:34;;;;;;;3.07;1.90;;;;;;;-5.09;61.87;102503.84;5005829;28;20210;-70
2024/01/08 09:19:01;;;;;;;4.97;2.50;;;;;;;-5.10;61.99;102502.97;5009377;28;20218;-70
2024/01/08 09:21:27;;;;;;;4.50;2.70;;;;;;;-5.06;61.71;102512.63;5007264;28;20227;-70
2024/01/08 09:23:54;;;;;;;4.17;2.57;;;;;;;-5.02;60.36;102509.28;5007157;28;20203;-70
2024/01/08 09:26:21;;;;;;;8.70;2.67;;;;;;;-5.01;60.72;102516.22;5008353;28;20225;-70
2024/01/08 09:28:47;;;;;;;4.70;2.97;;;;;;;-5.00;61.13;102517.97;5007052;28;20583;-70
2024/01/08 09:31:15;;;;;;;4.10;2.50;;;;;;;-5.01;61.42;102518.81;5010002;28;20634;-71
2024/01/08 09:33:42;;;;;;;4.20;2.63;;;;;;;-4.95;61.68;102518.13;5008796;28;20213;-70
2024/01/08 09:36:10;;;;;;;4.17;3.17;;;;;;;-4.92;60.57;102532.09;5001600;28;20207;-70
2024/01/08 09:38:37;;;;;;;5.17;3.03;;;;;;;-4.91;60.88;102526.06;5003536;28;20207;-70
2024/01/08 09:41:04;;;;;;;5.67;2.93;;;;;;;-4.90;60.08;102530.44;5007079;28;20233;-70
2024/01/08 09:43:32;;;;;;;3.83;2.63;;;;;;;-4.86;60.67;102526.22;5012639;28;20214;-70
2024/01/08 09:46:04;;;;;;;5.17;2.83;;;;;;;-4.84;60.36;102540.13;5005872;28;20199;-70
2024/01/08 09:48:33;;;;;;;6.67;2.87;;;;;;;-4.83;60.15;102531.47;5010120;28;20207;-69
2024/01/08 09:51:01;;;;;;;3.47;1.60;;;;;;;-4.75;60.17;102537.78;5006913;28;20203;-70
2024/01/08 09:53:29;;;;;;;5.07;2.73;;;;;;;-4.75;59.88;102540.41;5011966;28;20415;-70
2024/01/08 09:55:56;;;;;;;5.27;3.67;;;;;;;-4.74;60.20;102536.97;5006627;28;20286;-70
2024/01/08 09:58:23;;;;;;;4.37;2.63;;;;;;;-4.70;60.56;102537.94;5011181;28;20207;-70
2024/01/08 10:00:49;;;;;;;5.17;3.10;;;;;;;-4.69;60.33;102537.09;5004104;28;20541;-70
2024/01/08 10:03:16;;;;;;;4.47;2.13;;;;;;;-4.68;59.42;102531.06;5013446;28;20219;-70
2024/01/08 10:05:43;;;;;;;4.13;2.20;;;;;;;-4.65;60.00;102534.59;5006675;28;20217;-71
2024/01/08 10:08:10;;;;;;;6.33;2.60;;;;;;;-4.62;60.40;102526.91;5003061;28;20203;-70
2024/01/08 10:10:36;;;;;;;5.33;2.40;;;;;;;-4.61;59.25;102539.06;5012862;28;20203;-71
2024/01/08 10:13:03;;;;;;;3.20;2.23;;;;;;;-4.59;59.40;102536.50;5008604;28;20234;-70
2024/01/08 10:15:30;;;;;;;5.50;2.90;;;;;;;-4.57;60.31;102535.72;5011583;28;20219;-70
2024/01/08 10:18:01;;;;;;;5.60;3.37;;;;;;;-4.52;60.46;102542.78;5007383;28;20238;-70
2024/01/08 10:20:28;;;;;;;4.50;3.10;;;;;;;-4.51;60.50;102535.03;5010256;28;20644;-69
2024/01/08 10:23:06;;;;;;;4.90;3.03;;;;;;;-4.47;59.01;102535.97;5007331;28;20249;-70
2024/01/08 10:25:33;;;;;;;5.20;2.93;;;;;;;-4.43;59.34;102541.31;5009755;28;20199;-70
2024/01/08 10:28:00;;;;;;;3.70;2.43;;;;;;;-4.41;58.45;102539.63;5008306;28;20849;-71
2024/01/08 10:30:27;;;;;;;6.20;2.80;;;;;;;-4.41;59.09;102541.34;5005647;28;20207;-70
2024/01/08 10:32:58;;;;;;;3.40;2.67;;;;;;;-4.39;59.35;102545.75;5005206;28;20230;-70
2024/01/08 10:35:24;;;;;;;4.63;2.43;;;;;;;-4.37;58.88;102538.00;5002242;28;20203;-70
2024/01/08 10:37:51;;;;;;;3.57;2.50;;;;;;;-4.38;59.16;102541.44;5000413;28;20207;-70
2024/01/08 10:40:20;;;;;;;4.40;2.93;;;;;;;-4.33;59.29;102543.34;5006238;28;20234;-71
2024/01/08 10:42:46;;;;;;;5.03;2.87;;;;;;;-4.32;56.95;102537.31;5006669;28;20223;-71
2024/01/08 10:45:13;;;;;;;3.77;2.47;;;;;;;-4.36;57.21;102544.97;5000509;28;20215;-70
2024/01/08 10:47:45;;;;;;;5.17;3.17;;;;;;;-4.35;58.49;102538.94;5008062;28;20678;-70
2024/01/08 10:50:14;;;;;;;4.63;2.33;;;;;;;-4.34;58.29;102536.38;5012613;28;20214;-70
2024/01/08 10:52:50;;;;;;;3.47;2.63;;;;;;;-4.33;57.63;102540.75;5012530;28;20226;-70
2024/01/08 10:55:18;;;;;;;9.47;3.07;;;;;;;-4.34;57.95;102538.97;5006609;28;20690;-70
2024/01/08 10:57:54;;;;;;;4.63;2.63;;;;;;;-4.35;57.56;102547.63;5005760;28;20233;-71
2024/01/08 11:00:21;;;;;;;2.80;1.80;;;;;;;-4.36;58.60;102539.78;5005085;28;20764;-71
2024/01/08 11:02:48;;;;;;;3.67;1.93;;;;;;;-4.37;58.24;102541.47;5008003;28;20236;-70
2024/01/08 11:05:16;;;;;;;5.07;2.87;;;;;;;-4.38;58.21;102544.94;4999442;28;20398;-70
2024/01/08 11:07:47;;;;;;;4.43;2.90;;;;;;;-4.38;58.59;102544.03;5009347;28;20207;-71
2024/01/08 11:10:16;;;;;;;3.50;2.00;;;;;;;-4.37;59.96;102549.28;5005378;28;20211;-70
2024/01/08 11:12:52;;;;;;;3.53;2.37;;;;;;;-4.34;59.43;102549.38;5012489;28;20463;-71
2024/01/08 11:15:18;;;;;;;5.33;2.90;;;;;;;-4.29;60.30;102550.38;5010715;28;20223;-70
2024/01/08 11:17:51;;;;;;;5.00;3.57;;;;;;;-4.26;60.40;102550.47;5010221;28;20214;-69
2024/01/08 11:20:42;;;;;;;6.10;3.47;;;;;;;-4.22;58.74;102552.31;5010715;28;20266;-70
2024/01/08 11:23:35;;;;;;;6.27;2.87;;;;;;;-4.20;59.32;102547.16;5009933;28;20202;-71